createdAt,value
2023-02-17T00:00:24.243Z,23.40
2023-02-17T00:06:35.075Z,23.40
2023-02-17T00:12:45.590Z,23.30
2023-02-17T00:19:01.567Z,23.30
2023-02-17T00:25:13.234Z,23.50
2023-02-17T00:31:24.334Z,23.80
2023-02-17T00:37:33.364Z,23.80
2023-02-17T00:43:44.101Z,23.70
2023-02-17T00:49:53.129Z,23.60
2023-02-17T00:56:01.908Z,23.60
2023-02-17T01:02:14.504Z,23.50
2023-02-17T01:08:27.850Z,23.70
2023-02-17T01:14:42.189Z,23.90
2023-02-17T01:20:52.110Z,23.70
2023-02-17T01:27:03.552Z,23.50
2023-02-17T01:33:16.439Z,23.40
2023-02-17T01:39:26.366Z,23.30
2023-02-17T01:45:47.775Z,23.30
2023-02-17T01:51:58.012Z,23.20
2023-02-17T01:58:10.612Z,23.20
2023-02-17T02:04:21.883Z,23.10
2023-02-17T02:10:31.263Z,23.00
2023-02-17T02:16:43.895Z,23.00
2023-02-17T02:29:57.307Z,22.90
2023-02-17T02:36:10.883Z,22.90
2023-02-17T02:42:24.846Z,22.80
2023-02-17T02:48:33.564Z,22.80
2023-02-17T02:54:48.518Z,22.80
2023-02-17T03:01:00.294Z,22.80
2023-02-17T03:07:14.171Z,22.70
2023-02-17T03:13:27.568Z,22.60
2023-02-17T03:19:37.039Z,22.60
2023-02-17T03:25:48.139Z,22.60
2023-02-17T03:31:57.247Z,22.40
2023-02-17T03:38:13.245Z,22.50
2023-02-17T03:44:24.241Z,22.30
2023-02-17T03:50:34.101Z,22.30
2023-02-17T03:56:41.370Z,22.30
2023-02-17T04:02:54.081Z,22.30
2023-02-17T04:09:05.593Z,22.30
2023-02-17T04:15:19.196Z,22.10
2023-02-17T04:21:28.070Z,22.10
2023-02-17T04:27:40.917Z,22.10
2023-02-17T04:33:51.224Z,22.10
2023-02-17T04:40:02.423Z,22.20
2023-02-17T04:46:15.011Z,22.10
2023-02-17T04:52:24.309Z,22.10
2023-02-17T04:58:34.346Z,22.10
2023-02-17T05:04:47.578Z,22.10
2023-02-17T05:10:57.309Z,22.10
2023-02-17T05:17:11.186Z,22.00
2023-02-17T05:23:22.170Z,22.00
2023-02-17T05:29:32.101Z,21.90
2023-02-17T05:35:41.066Z,21.90
2023-02-17T05:41:55.875Z,21.90
2023-02-17T05:48:08.920Z,21.80
2023-02-17T05:54:17.910Z,21.90
2023-02-17T06:00:27.840Z,21.70
2023-02-17T06:06:39.477Z,21.70
2023-02-17T06:12:49.970Z,21.70
2023-02-17T06:19:00.237Z,21.70
2023-02-17T06:25:09.762Z,21.70
2023-02-17T06:31:20.510Z,21.60
2023-02-17T06:37:32.196Z,21.60
2023-02-17T06:43:40.671Z,21.60
2023-02-17T06:49:49.138Z,21.60
2023-02-17T06:55:58.388Z,21.60
2023-02-17T07:02:12.851Z,21.40
2023-02-17T07:08:20.492Z,21.50
2023-02-17T07:14:27.780Z,21.40
2023-02-17T07:20:41.457Z,21.40
2023-02-17T07:26:51.001Z,21.40
2023-02-17T07:32:59.216Z,21.30
2023-02-17T07:39:10.528Z,21.50
2023-02-17T07:45:21.981Z,21.60
2023-02-17T07:51:33.612Z,21.70
2023-02-17T07:57:44.462Z,21.60
2023-02-17T08:03:55.415Z,21.50
2023-02-17T08:10:22.721Z,21.50
2023-02-17T08:16:31.800Z,21.60
2023-02-17T08:22:42.975Z,21.70
2023-02-17T08:28:55.398Z,21.60
2023-02-17T08:35:04.980Z,21.60
2023-02-17T08:41:23.443Z,21.50
2023-02-17T08:47:35.376Z,21.60
2023-02-17T08:53:45.440Z,21.70
2023-02-17T08:59:56.924Z,21.60
2023-02-17T09:06:08.144Z,21.60
2023-02-17T09:12:17.631Z,21.60
2023-02-17T09:18:27.777Z,21.50
2023-02-17T09:24:37.384Z,21.60
2023-02-17T09:30:46.070Z,21.60
2023-02-17T09:36:54.647Z,21.60
2023-02-17T09:43:05.445Z,21.50
2023-02-17T09:49:14.945Z,21.60
2023-02-17T09:55:30.160Z,21.70
2023-02-17T10:01:41.136Z,21.70
2023-02-17T10:07:54.173Z,21.60
2023-02-17T10:14:07.905Z,21.50
2023-02-17T10:20:17.780Z,21.70
2023-02-17T10:26:35.448Z,21.70
2023-02-17T10:32:49.977Z,21.60
2023-02-17T10:38:59.664Z,21.60
2023-02-17T10:45:14.535Z,21.60
2023-02-17T10:51:23.615Z,21.70
2023-02-17T10:57:36.003Z,21.70
2023-02-17T11:03:47.091Z,21.70
2023-02-17T11:09:58.255Z,21.60
2023-02-17T11:16:09.022Z,21.70
2023-02-17T11:22:37.744Z,21.80
2023-02-17T11:28:47.623Z,21.70
2023-02-17T11:35:08.189Z,21.60
2023-02-17T11:41:20.681Z,21.70
2023-02-17T11:47:36.803Z,21.90
2023-02-17T11:53:51.239Z,21.70
2023-02-17T12:00:06.343Z,21.60
2023-02-17T12:06:15.824Z,21.70
2023-02-17T12:12:30.400Z,21.90
2023-02-17T12:18:48.447Z,21.90
2023-02-17T12:25:19.057Z,21.80
2023-02-17T12:31:33.855Z,21.80
2023-02-17T12:37:48.534Z,22.00
2023-02-17T12:43:59.837Z,22.20
2023-02-17T12:50:13.719Z,22.40
2023-02-17T12:56:49.954Z,22.50
2023-02-17T13:03:04.036Z,22.70
2023-02-17T13:09:19.687Z,22.80
2023-02-17T13:15:44.719Z,23.00
2023-02-17T13:21:55.898Z,22.90
2023-02-17T13:28:04.867Z,22.80
2023-02-17T13:34:18.024Z,22.80
2023-02-17T13:40:41.693Z,23.00
2023-02-17T13:46:49.059Z,23.20
2023-02-17T13:52:56.720Z,23.20
2023-02-17T13:59:15.484Z,23.10
2023-02-17T14:05:26.488Z,23.00
2023-02-17T14:11:36.693Z,23.30
2023-02-17T14:17:47.268Z,23.50
2023-02-17T14:23:57.887Z,23.60
2023-02-17T14:30:09.933Z,23.50
2023-02-17T14:36:19.073Z,23.40
2023-02-17T14:42:29.566Z,23.30
2023-02-17T14:48:41.091Z,23.70
2023-02-17T14:54:49.668Z,23.80
2023-02-17T15:01:04.808Z,23.70
2023-02-17T15:07:18.307Z,23.50
2023-02-17T15:13:25.769Z,23.70
2023-02-17T15:19:35.883Z,23.90
2023-02-17T15:25:48.529Z,24.20
2023-02-17T15:31:56.590Z,24.10
2023-02-17T15:38:05.746Z,23.80
2023-02-17T15:44:17.899Z,23.90
2023-02-17T15:50:25.882Z,24.40
2023-02-17T15:56:39.319Z,24.50
2023-02-17T16:02:50.946Z,24.20
2023-02-17T16:09:00.504Z,24.10
2023-02-17T16:15:14.758Z,24.10
2023-02-17T16:21:26.509Z,24.50
2023-02-17T16:27:40.294Z,24.70
2023-02-17T16:33:49.206Z,24.70
2023-02-17T16:39:59.312Z,24.60
2023-02-17T16:46:15.563Z,24.70
2023-02-17T16:52:26.534Z,24.50
2023-02-17T16:58:35.754Z,24.60
2023-02-17T17:04:43.329Z,24.90
2023-02-17T17:10:54.848Z,25.10
2023-02-17T17:17:03.510Z,25.10
2023-02-17T17:23:11.651Z,24.80
2023-02-17T17:29:20.258Z,24.70
2023-02-17T17:35:31.992Z,24.60
2023-02-17T17:41:42.914Z,24.40
2023-02-17T17:47:50.783Z,24.40
2023-02-17T17:54:03.314Z,24.70
2023-02-17T18:00:19.736Z,25.00
2023-02-17T18:06:25.495Z,24.90
2023-02-17T18:12:34.702Z,24.70
2023-02-17T18:18:43.467Z,24.60
2023-02-17T18:24:54.941Z,24.60
2023-02-17T18:31:12.594Z,24.50
2023-02-17T18:37:21.635Z,24.60
2023-02-17T18:43:34.137Z,24.90
2023-02-17T18:49:45.541Z,25.10
2023-02-17T18:55:54.610Z,24.90
2023-02-17T19:02:08.196Z,24.70
2023-02-17T19:08:16.781Z,24.50
2023-02-17T19:20:42.784Z,24.30
2023-02-17T19:26:50.306Z,24.40
2023-02-17T19:33:00.887Z,24.70
2023-02-17T19:39:14.647Z,24.70
2023-02-17T19:45:25.403Z,24.40
2023-02-17T19:51:38.229Z,24.30
2023-02-17T19:57:50.492Z,24.20
2023-02-17T20:10:18.719Z,24.60
2023-02-17T20:16:29.632Z,24.40
2023-02-17T20:22:38.596Z,24.20
2023-02-17T20:28:51.990Z,24.10
2023-02-17T20:35:02.075Z,24.00
2023-02-17T20:41:16.087Z,24.20
2023-02-17T20:47:29.527Z,24.50
2023-02-17T20:53:42.257Z,24.50
2023-02-17T20:59:53.109Z,24.20
2023-02-17T21:06:00.517Z,24.00
2023-02-17T21:12:11.981Z,23.80
2023-02-17T21:18:23.528Z,24.00
2023-02-17T21:24:33.374Z,24.30
2023-02-17T21:30:46.063Z,24.40
2023-02-17T21:36:54.493Z,24.10
2023-02-17T21:43:21.945Z,24.00
2023-02-17T21:49:33.650Z,23.90
2023-02-17T21:55:44.888Z,23.80
2023-02-17T22:01:56.360Z,23.80
2023-02-17T22:08:04.913Z,24.10
2023-02-17T22:14:16.646Z,24.10
2023-02-17T22:20:27.194Z,24.00
2023-02-17T22:26:35.256Z,23.80
2023-02-17T22:32:44.482Z,23.60
2023-02-17T22:38:54.568Z,23.80
2023-02-17T22:45:06.821Z,24.00
2023-02-17T22:51:15.555Z,24.20
2023-02-17T22:57:26.399Z,24.10
2023-02-17T23:03:38.208Z,23.80
2023-02-17T23:09:48.213Z,23.70
2023-02-17T23:15:59.407Z,24.00
2023-02-17T23:22:12.701Z,24.40
2023-02-17T23:28:22.172Z,24.40
2023-02-17T23:34:32.192Z,24.10
2023-02-17T23:40:47.965Z,23.90
2023-02-17T23:46:59.510Z,23.80
2023-02-17T23:53:15.089Z,23.80
2023-02-17T23:59:24.368Z,24.10
